KKB3901 KAGS-KSSI
Flight info
| Callsign | KKB3901 |
|---|---|
| Flight time | 0h 51m |
| Altitude | 5000 |
| Route | SAV |
| Aircraft | BE58/L-SDFGRY/C |
Departure
| Time | 2026-05-07 19:16 |
|---|---|
| Airport | Augusta Regional At Bush Field (KAGS) |
Arrival
| Time | 2026-05-07 20:07 |
|---|---|
| Airport | St Simons Island Airport (KSSI) |
| Time | Latitude | Longitude | Altitude | Speed | Heading |
|---|---|---|---|---|---|
| 2026-05-07 18:59 | 33.37263 | -81.97161 | 143 ft | 0 kts | 348° |
| 2026-05-07 19:12 | 33.37284 | -81.97122 | 143 ft | 10 kts | 73° |
| 2026-05-07 19:13 | 33.37348 | -81.97098 | 143 ft | 13 kts | 346° |
| 2026-05-07 19:13 | 33.37446 | -81.97121 | 143 ft | 15 kts | 5° |
| 2026-05-07 19:13 | 33.37524 | -81.97042 | 142 ft | 17 kts | 349° |
| 2026-05-07 19:13 | 33.37649 | -81.97071 | 142 ft | 18 kts | 350° |
| 2026-05-07 19:14 | 33.37780 | -81.97107 | 143 ft | 19 kts | 342° |
| 2026-05-07 19:14 | 33.37894 | -81.97150 | 144 ft | 8 kts | 360° |
| 2026-05-07 19:14 | 33.37968 | -81.97149 | 144 ft | 12 kts | 1° |
| 2026-05-07 19:14 | 33.38055 | -81.97169 | 143 ft | 13 kts | 349° |
| 2026-05-07 19:15 | 33.38159 | -81.97196 | 142 ft | 16 kts | 346° |
| 2026-05-07 19:15 | 33.38221 | -81.97133 | 140 ft | 13 kts | 73° |
| 2026-05-07 19:15 | 33.38224 | -81.97071 | 139 ft | 0 kts | 171° |
| 2026-05-07 19:15 | 33.38036 | -81.97034 | 141 ft | 68 kts | 168° |
| 2026-05-07 19:16 | 33.37427 | -81.96877 | 212 ft | 105 kts | 168° |
| 2026-05-07 19:16 | 33.36655 | -81.96634 | 481 ft | 121 kts | 169° |
| 2026-05-07 19:16 | 33.35846 | -81.96317 | 903 ft | 121 kts | 165° |
| 2026-05-07 19:16 | 33.35058 | -81.95914 | 1275 ft | 126 kts | 163° |
| 2026-05-07 19:17 | 33.34284 | -81.95441 | 1629 ft | 125 kts | 162° |
| 2026-05-07 19:17 | 33.33526 | -81.94955 | 1941 ft | 122 kts | 163° |
| 2026-05-07 19:17 | 33.32768 | -81.94475 | 2160 ft | 127 kts | 164° |
| 2026-05-07 19:17 | 33.31967 | -81.93965 | 2408 ft | 132 kts | 164° |
| 2026-05-07 19:18 | 33.31132 | -81.93433 | 2629 ft | 138 kts | 162° |
| 2026-05-07 19:18 | 33.30282 | -81.92888 | 2863 ft | 140 kts | 163° |
| 2026-05-07 19:18 | 33.29417 | -81.92333 | 3089 ft | 143 kts | 163° |
| 2026-05-07 19:18 | 33.28534 | -81.91769 | 3316 ft | 145 kts | 162° |
| 2026-05-07 19:19 | 33.27650 | -81.91193 | 3523 ft | 138 kts | 166° |
| 2026-05-07 19:19 | 33.26788 | -81.90646 | 3719 ft | 144 kts | 164° |
| 2026-05-07 19:19 | 33.25887 | -81.90075 | 3958 ft | 149 kts | 163° |
| 2026-05-07 19:19 | 33.24956 | -81.89481 | 4221 ft | 152 kts | 163° |
| 2026-05-07 19:20 | 33.24018 | -81.88880 | 4485 ft | 154 kts | 163° |
| 2026-05-07 19:20 | 33.23072 | -81.88276 | 4703 ft | 159 kts | 163° |
| 2026-05-07 19:20 | 33.22070 | -81.87623 | 4839 ft | 168 kts | 162° |
| 2026-05-07 19:20 | 33.20999 | -81.86944 | 4908 ft | 178 kts | 163° |
| 2026-05-07 19:21 | 33.19887 | -81.86242 | 4959 ft | 186 kts | 162° |
| 2026-05-07 19:21 | 33.18730 | -81.85505 | 4990 ft | 192 kts | 161° |
| 2026-05-07 19:21 | 33.17532 | -81.84739 | 4987 ft | 194 kts | 161° |
| 2026-05-07 19:21 | 33.16347 | -81.83981 | 4984 ft | 194 kts | 162° |
| 2026-05-07 19:22 | 33.15144 | -81.83214 | 4980 ft | 194 kts | 161° |
| 2026-05-07 19:22 | 33.13961 | -81.82458 | 4981 ft | 194 kts | 162° |
| 2026-05-07 19:22 | 33.12767 | -81.81697 | 4979 ft | 194 kts | 161° |
| 2026-05-07 19:22 | 33.11570 | -81.80933 | 4978 ft | 193 kts | 162° |
| 2026-05-07 19:23 | 33.10398 | -81.80187 | 4979 ft | 193 kts | 162° |
| 2026-05-07 19:23 | 33.09202 | -81.79425 | 4982 ft | 193 kts | 162° |
| 2026-05-07 19:23 | 33.08024 | -81.78675 | 4981 ft | 192 kts | 162° |
| 2026-05-07 19:23 | 33.06840 | -81.77921 | 4981 ft | 192 kts | 162° |
| 2026-05-07 19:24 | 33.05654 | -81.77167 | 4986 ft | 192 kts | 162° |
| 2026-05-07 19:24 | 33.04479 | -81.76420 | 4983 ft | 193 kts | 162° |
| 2026-05-07 19:24 | 33.03289 | -81.75661 | 4982 ft | 192 kts | 162° |
| 2026-05-07 19:24 | 33.02100 | -81.74906 | 4983 ft | 192 kts | 162° |
| 2026-05-07 19:25 | 33.00925 | -81.74159 | 4978 ft | 193 kts | 162° |
| 2026-05-07 19:25 | 32.99739 | -81.73405 | 4982 ft | 193 kts | 162° |
| 2026-05-07 19:25 | 32.98564 | -81.72659 | 4988 ft | 192 kts | 164° |
| 2026-05-07 19:25 | 32.97376 | -81.71905 | 4987 ft | 192 kts | 162° |
| 2026-05-07 19:26 | 32.96178 | -81.71144 | 4986 ft | 193 kts | 162° |
| 2026-05-07 19:26 | 32.94997 | -81.70394 | 4986 ft | 193 kts | 162° |
| 2026-05-07 19:26 | 32.93814 | -81.69644 | 4984 ft | 193 kts | 162° |
| 2026-05-07 19:26 | 32.92631 | -81.68895 | 4985 ft | 193 kts | 162° |
| 2026-05-07 19:27 | 32.91438 | -81.68139 | 4985 ft | 193 kts | 162° |
| 2026-05-07 19:27 | 32.90251 | -81.67387 | 4983 ft | 193 kts | 162° |
| 2026-05-07 19:27 | 32.89068 | -81.66638 | 4986 ft | 193 kts | 162° |
| 2026-05-07 19:27 | 32.87885 | -81.65889 | 4987 ft | 193 kts | 162° |
| 2026-05-07 19:28 | 32.86696 | -81.65136 | 4989 ft | 193 kts | 163° |
| 2026-05-07 19:28 | 32.85514 | -81.64387 | 4992 ft | 193 kts | 163° |
| 2026-05-07 19:28 | 32.84326 | -81.63635 | 4994 ft | 193 kts | 162° |
| 2026-05-07 19:28 | 32.83130 | -81.62879 | 4995 ft | 193 kts | 163° |
| 2026-05-07 19:29 | 32.81933 | -81.62122 | 4995 ft | 193 kts | 162° |
| 2026-05-07 19:29 | 32.80747 | -81.61371 | 4996 ft | 193 kts | 162° |
| 2026-05-07 19:29 | 32.79555 | -81.60618 | 4999 ft | 193 kts | 163° |
| 2026-05-07 19:29 | 32.78375 | -81.59872 | 4999 ft | 193 kts | 162° |
| 2026-05-07 19:30 | 32.77187 | -81.59123 | 4999 ft | 193 kts | 163° |
| 2026-05-07 19:30 | 32.75996 | -81.58369 | 4998 ft | 194 kts | 163° |
| 2026-05-07 19:30 | 32.74840 | -81.57641 | 4999 ft | 194 kts | 162° |
| 2026-05-07 19:30 | 32.73657 | -81.56894 | 5000 ft | 194 kts | 163° |
| 2026-05-07 19:31 | 32.72471 | -81.56145 | 5001 ft | 194 kts | 162° |
| 2026-05-07 19:31 | 32.71278 | -81.55392 | 5004 ft | 193 kts | 162° |
| 2026-05-07 19:31 | 32.70081 | -81.54637 | 5004 ft | 193 kts | 162° |
| 2026-05-07 19:31 | 32.68895 | -81.53889 | 5003 ft | 194 kts | 162° |
| 2026-05-07 19:32 | 32.67698 | -81.53135 | 5005 ft | 193 kts | 162° |
| 2026-05-07 19:32 | 32.66517 | -81.52391 | 5005 ft | 194 kts | 163° |
| 2026-05-07 19:32 | 32.65315 | -81.51633 | 5003 ft | 194 kts | 163° |
| 2026-05-07 19:32 | 32.64122 | -81.50884 | 5005 ft | 194 kts | 162° |
| 2026-05-07 19:33 | 32.62935 | -81.50137 | 5005 ft | 194 kts | 163° |
| 2026-05-07 19:33 | 32.61736 | -81.49380 | 5006 ft | 194 kts | 163° |
| 2026-05-07 19:33 | 32.60534 | -81.48625 | 5008 ft | 194 kts | 163° |
| 2026-05-07 19:33 | 32.59343 | -81.47876 | 5004 ft | 194 kts | 163° |
| 2026-05-07 19:34 | 32.58139 | -81.47118 | 5006 ft | 194 kts | 163° |
| 2026-05-07 19:34 | 32.56942 | -81.46367 | 5008 ft | 194 kts | 163° |
| 2026-05-07 19:34 | 32.55754 | -81.45620 | 5006 ft | 195 kts | 163° |
| 2026-05-07 19:34 | 32.54552 | -81.44865 | 5009 ft | 195 kts | 163° |
| 2026-05-07 19:35 | 32.53889 | -81.44450 | 5005 ft | 195 kts | 163° |
| 2026-05-07 19:35 | 32.52676 | -81.43688 | 5004 ft | 195 kts | 163° |
| 2026-05-07 19:35 | 32.51474 | -81.42934 | 5003 ft | 195 kts | 162° |
| 2026-05-07 19:35 | 32.50277 | -81.42181 | 5003 ft | 194 kts | 163° |
| 2026-05-07 19:36 | 32.49079 | -81.41430 | 4999 ft | 194 kts | 163° |
| 2026-05-07 19:36 | 32.47881 | -81.40679 | 5000 ft | 194 kts | 163° |
| 2026-05-07 19:36 | 32.46692 | -81.39934 | 4995 ft | 194 kts | 163° |
| 2026-05-07 19:36 | 32.45495 | -81.39184 | 4999 ft | 194 kts | 163° |
| 2026-05-07 19:37 | 32.44300 | -81.38435 | 4980 ft | 195 kts | 164° |
| 2026-05-07 19:37 | 32.43101 | -81.37685 | 4985 ft | 194 kts | 163° |
| 2026-05-07 19:37 | 32.41906 | -81.36935 | 4984 ft | 194 kts | 164° |
| 2026-05-07 19:37 | 32.40715 | -81.36191 | 4984 ft | 194 kts | 163° |
| 2026-05-07 19:38 | 32.39511 | -81.35437 | 4983 ft | 194 kts | 163° |
| 2026-05-07 19:38 | 32.38325 | -81.34695 | 4974 ft | 194 kts | 165° |
| 2026-05-07 19:38 | 32.37135 | -81.33950 | 4972 ft | 193 kts | 164° |
| 2026-05-07 19:38 | 32.35938 | -81.33202 | 4973 ft | 192 kts | 165° |
| 2026-05-07 19:39 | 32.34771 | -81.32471 | 4973 ft | 191 kts | 165° |
| 2026-05-07 19:39 | 32.33588 | -81.31733 | 4975 ft | 190 kts | 165° |
| 2026-05-07 19:39 | 32.32429 | -81.31010 | 4979 ft | 190 kts | 165° |
| 2026-05-07 19:39 | 32.31246 | -81.30272 | 4981 ft | 191 kts | 165° |
| 2026-05-07 19:40 | 32.30071 | -81.29539 | 4979 ft | 191 kts | 165° |
| 2026-05-07 19:40 | 32.28886 | -81.28798 | 4977 ft | 191 kts | 165° |
| 2026-05-07 19:40 | 32.27719 | -81.28070 | 4981 ft | 191 kts | 165° |
| 2026-05-07 19:40 | 32.26540 | -81.27335 | 4987 ft | 191 kts | 165° |
| 2026-05-07 19:41 | 32.25353 | -81.26595 | 4986 ft | 191 kts | 165° |
| 2026-05-07 19:41 | 32.24178 | -81.25863 | 4988 ft | 191 kts | 165° |
| 2026-05-07 19:41 | 32.22995 | -81.25125 | 4990 ft | 192 kts | 165° |
| 2026-05-07 19:41 | 32.21818 | -81.24393 | 4983 ft | 192 kts | 165° |
| 2026-05-07 19:42 | 32.20643 | -81.23659 | 4983 ft | 191 kts | 165° |
| 2026-05-07 19:42 | 32.19462 | -81.22926 | 4986 ft | 190 kts | 165° |
| 2026-05-07 19:42 | 32.18285 | -81.22192 | 4984 ft | 191 kts | 165° |
| 2026-05-07 19:42 | 32.17108 | -81.21459 | 4987 ft | 190 kts | 165° |
| 2026-05-07 19:43 | 32.15942 | -81.20735 | 4989 ft | 191 kts | 165° |
| 2026-05-07 19:43 | 32.14739 | -81.20106 | 4982 ft | 177 kts | 185° |
| 2026-05-07 19:43 | 32.13576 | -81.20159 | 4991 ft | 164 kts | 200° |
| 2026-05-07 19:43 | 32.12442 | -81.20359 | 4987 ft | 164 kts | 202° |
| 2026-05-07 19:44 | 32.11311 | -81.20570 | 4988 ft | 164 kts | 202° |
| 2026-05-07 19:44 | 32.10172 | -81.20786 | 4988 ft | 164 kts | 203° |
| 2026-05-07 19:44 | 32.09041 | -81.21003 | 4985 ft | 164 kts | 202° |
| 2026-05-07 19:44 | 32.07914 | -81.21220 | 4987 ft | 164 kts | 202° |
| 2026-05-07 19:45 | 32.06792 | -81.21437 | 4988 ft | 163 kts | 203° |
| 2026-05-07 19:45 | 32.05673 | -81.21654 | 4988 ft | 163 kts | 203° |
| 2026-05-07 19:45 | 32.04549 | -81.21872 | 4988 ft | 163 kts | 202° |
| 2026-05-07 19:45 | 32.03437 | -81.22089 | 4987 ft | 163 kts | 202° |
| 2026-05-07 19:46 | 32.02301 | -81.22311 | 4987 ft | 163 kts | 203° |
| 2026-05-07 19:46 | 32.01183 | -81.22528 | 4987 ft | 163 kts | 202° |
| 2026-05-07 19:46 | 32.00059 | -81.22746 | 4988 ft | 163 kts | 202° |
| 2026-05-07 19:46 | 31.98936 | -81.22965 | 4986 ft | 164 kts | 203° |
| 2026-05-07 19:47 | 31.97817 | -81.23182 | 4988 ft | 163 kts | 203° |
| 2026-05-07 19:47 | 31.96691 | -81.23402 | 4986 ft | 163 kts | 203° |
| 2026-05-07 19:47 | 31.95559 | -81.23622 | 4989 ft | 164 kts | 202° |
| 2026-05-07 19:47 | 31.94429 | -81.23841 | 4986 ft | 164 kts | 202° |
| 2026-05-07 19:48 | 31.93292 | -81.24061 | 4986 ft | 164 kts | 202° |
| 2026-05-07 19:48 | 31.92167 | -81.24280 | 4988 ft | 163 kts | 202° |
| 2026-05-07 19:48 | 31.91043 | -81.24498 | 4989 ft | 164 kts | 202° |
| 2026-05-07 19:48 | 31.89919 | -81.24716 | 4993 ft | 164 kts | 202° |
| 2026-05-07 19:49 | 31.88780 | -81.24937 | 5003 ft | 165 kts | 202° |
| 2026-05-07 19:49 | 31.87648 | -81.25159 | 5001 ft | 165 kts | 202° |
| 2026-05-07 19:49 | 31.86520 | -81.25377 | 4993 ft | 165 kts | 201° |
| 2026-05-07 19:49 | 31.85372 | -81.25599 | 5000 ft | 165 kts | 202° |
| 2026-05-07 19:50 | 31.84236 | -81.25819 | 5002 ft | 166 kts | 202° |
| 2026-05-07 19:50 | 31.83108 | -81.26038 | 4995 ft | 165 kts | 201° |
| 2026-05-07 19:50 | 31.81965 | -81.26258 | 4991 ft | 165 kts | 202° |
| 2026-05-07 19:50 | 31.80823 | -81.26480 | 4997 ft | 165 kts | 202° |
| 2026-05-07 19:51 | 31.79685 | -81.26701 | 4992 ft | 165 kts | 201° |
| 2026-05-07 19:51 | 31.78543 | -81.26921 | 4993 ft | 165 kts | 202° |
| 2026-05-07 19:51 | 31.77405 | -81.27142 | 4993 ft | 165 kts | 201° |
| 2026-05-07 19:51 | 31.76280 | -81.27361 | 4987 ft | 165 kts | 201° |
| 2026-05-07 19:52 | 31.75141 | -81.27580 | 4987 ft | 164 kts | 201° |
| 2026-05-07 19:52 | 31.74004 | -81.27801 | 4990 ft | 164 kts | 201° |
| 2026-05-07 19:52 | 31.72876 | -81.28017 | 4988 ft | 164 kts | 201° |
| 2026-05-07 19:52 | 31.71751 | -81.28236 | 4990 ft | 164 kts | 201° |
| 2026-05-07 19:53 | 31.70611 | -81.28456 | 4989 ft | 164 kts | 201° |
| 2026-05-07 19:53 | 31.69479 | -81.28675 | 4986 ft | 165 kts | 201° |
| 2026-05-07 19:53 | 31.68354 | -81.28893 | 4986 ft | 165 kts | 200° |
| 2026-05-07 19:53 | 31.67219 | -81.29112 | 4989 ft | 165 kts | 200° |
| 2026-05-07 19:54 | 31.66083 | -81.29331 | 4993 ft | 165 kts | 200° |
| 2026-05-07 19:54 | 31.64933 | -81.29552 | 4990 ft | 165 kts | 200° |
| 2026-05-07 19:54 | 31.63808 | -81.29771 | 4988 ft | 165 kts | 200° |
| 2026-05-07 19:54 | 31.62659 | -81.29992 | 4992 ft | 165 kts | 200° |
| 2026-05-07 19:55 | 31.61534 | -81.30209 | 4991 ft | 165 kts | 201° |
| 2026-05-07 19:55 | 31.60398 | -81.30428 | 4990 ft | 165 kts | 200° |
| 2026-05-07 19:55 | 31.59254 | -81.30650 | 4991 ft | 165 kts | 200° |
| 2026-05-07 19:55 | 31.58122 | -81.30868 | 4990 ft | 165 kts | 201° |
| 2026-05-07 19:56 | 31.56992 | -81.31086 | 4989 ft | 165 kts | 200° |
| 2026-05-07 19:56 | 31.55854 | -81.31306 | 4988 ft | 164 kts | 201° |
| 2026-05-07 19:56 | 31.54688 | -81.31364 | 4992 ft | 172 kts | 186° |
| 2026-05-07 19:56 | 31.53423 | -81.31200 | 4990 ft | 174 kts | 185° |
| 2026-05-07 19:57 | 31.52276 | -81.31033 | 4992 ft | 174 kts | 184° |
| 2026-05-07 19:57 | 31.51071 | -81.30853 | 4989 ft | 174 kts | 184° |
| 2026-05-07 19:57 | 31.49871 | -81.30673 | 4993 ft | 174 kts | 184° |
| 2026-05-07 19:57 | 31.48656 | -81.30490 | 4990 ft | 174 kts | 184° |
| 2026-05-07 19:58 | 31.47458 | -81.30309 | 4990 ft | 173 kts | 183° |
| 2026-05-07 19:58 | 31.46288 | -81.30131 | 4862 ft | 169 kts | 183° |
| 2026-05-07 19:58 | 31.45120 | -81.29959 | 4615 ft | 172 kts | 182° |
| 2026-05-07 19:58 | 31.43932 | -81.29779 | 4421 ft | 171 kts | 183° |
| 2026-05-07 19:59 | 31.42748 | -81.29600 | 4254 ft | 169 kts | 182° |
| 2026-05-07 19:59 | 31.41569 | -81.29422 | 4079 ft | 169 kts | 182° |
| 2026-05-07 19:59 | 31.40420 | -81.29250 | 3917 ft | 168 kts | 182° |
| 2026-05-07 19:59 | 31.39251 | -81.29073 | 3784 ft | 167 kts | 182° |
| 2026-05-07 20:00 | 31.38109 | -81.28902 | 3651 ft | 167 kts | 182° |
| 2026-05-07 20:00 | 31.36956 | -81.28728 | 3520 ft | 166 kts | 182° |
| 2026-05-07 20:00 | 31.35808 | -81.28557 | 3383 ft | 165 kts | 182° |
| 2026-05-07 20:00 | 31.34671 | -81.28386 | 3238 ft | 163 kts | 182° |
| 2026-05-07 20:01 | 31.33554 | -81.28218 | 3091 ft | 162 kts | 182° |
| 2026-05-07 20:01 | 31.32431 | -81.28050 | 2941 ft | 162 kts | 181° |
| 2026-05-07 20:01 | 31.31312 | -81.27882 | 2800 ft | 162 kts | 181° |
| 2026-05-07 20:01 | 31.30200 | -81.27715 | 2663 ft | 162 kts | 181° |
| 2026-05-07 20:02 | 31.29098 | -81.27760 | 2509 ft | 152 kts | 208° |
| 2026-05-07 20:02 | 31.28189 | -81.28368 | 2369 ft | 150 kts | 218° |
| 2026-05-07 20:02 | 31.27336 | -81.29063 | 2196 ft | 151 kts | 219° |
| 2026-05-07 20:02 | 31.26478 | -81.29784 | 2022 ft | 153 kts | 219° |
| 2026-05-07 20:03 | 31.25608 | -81.30519 | 1858 ft | 154 kts | 219° |
| 2026-05-07 20:03 | 31.24754 | -81.31243 | 1782 ft | 145 kts | 219° |
| 2026-05-07 20:03 | 31.23960 | -81.31917 | 1678 ft | 140 kts | 219° |
| 2026-05-07 20:03 | 31.23165 | -81.32594 | 1607 ft | 138 kts | 219° |
| 2026-05-07 20:04 | 31.22449 | -81.33202 | 1633 ft | 117 kts | 220° |
| 2026-05-07 20:04 | 31.21776 | -81.33784 | 1100 ft | 135 kts | 218° |
| 2026-05-07 20:04 | 31.21125 | -81.34352 | 889 ft | 99 kts | 220° |
| 2026-05-07 20:04 | 31.20613 | -81.34819 | 842 ft | 88 kts | 217° |
| 2026-05-07 20:05 | 31.20110 | -81.35203 | 765 ft | 85 kts | 217° |
| 2026-05-07 20:05 | 31.19626 | -81.35606 | 664 ft | 87 kts | 219° |
| 2026-05-07 20:05 | 31.19131 | -81.36025 | 585 ft | 85 kts | 218° |
| 2026-05-07 20:05 | 31.18648 | -81.36436 | 506 ft | 86 kts | 218° |
| 2026-05-07 20:06 | 31.18166 | -81.36844 | 435 ft | 85 kts | 217° |
| 2026-05-07 20:06 | 31.17684 | -81.37253 | 369 ft | 84 kts | 217° |
| 2026-05-07 20:06 | 31.17207 | -81.37658 | 288 ft | 85 kts | 217° |
| 2026-05-07 20:06 | 31.16721 | -81.38070 | 209 ft | 86 kts | 217° |
| 2026-05-07 20:07 | 31.16246 | -81.38473 | 155 ft | 81 kts | 217° |
| 2026-05-07 20:07 | 31.15796 | -81.38858 | 61 ft | 77 kts | 216° |
| 2026-05-07 20:07 | 31.15410 | -81.39183 | 14 ft | 49 kts | 218° |
| 2026-05-07 20:07 | 31.15342 | -81.39191 | 14 ft | 9 kts | 114° |
| 2026-05-07 20:08 | 31.15318 | -81.39101 | 14 ft | 6 kts | 105° |
| 2026-05-07 20:08 | 31.15327 | -81.39046 | 14 ft | 12 kts | 35° |
| 2026-05-07 20:08 | 31.15411 | -81.38975 | 16 ft | 16 kts | 36° |
| 2026-05-07 20:08 | 31.15511 | -81.38891 | 17 ft | 18 kts | 34° |
| 2026-05-07 20:09 | 31.15556 | -81.38802 | 17 ft | 8 kts | 93° |
| 2026-05-07 20:09 | 31.15532 | -81.38725 | 15 ft | 11 kts | 152° |
| 2026-05-07 20:09 | 31.15518 | -81.38718 | 15 ft | 2 kts | 154° |
| 2026-05-07 20:10 | 31.15516 | -81.38716 | 15 ft | 0 kts | 154° |